createdAt,value
2019-04-21T00:01:55.965Z,8.80
2019-04-21T00:04:39.395Z,8.70
2019-04-21T00:07:13.418Z,8.60
2019-04-21T00:09:53.438Z,8.70
2019-04-21T00:12:15.295Z,8.70
2019-04-21T00:14:39.582Z,8.60
2019-04-21T00:17:05.099Z,8.70
2019-04-21T00:19:33.635Z,8.80
2019-04-21T00:22:11.678Z,8.80
2019-04-21T00:24:46.197Z,8.70
2019-04-21T00:27:15.624Z,8.60
2019-04-21T00:29:50.198Z,8.60
2019-04-21T00:32:16.505Z,8.70
2019-04-21T00:34:32.165Z,8.90
2019-04-21T00:37:12.245Z,8.90
2019-04-21T00:42:21.648Z,8.70
2019-04-21T00:44:44.152Z,8.60
2019-04-21T00:47:25.263Z,8.50
2019-04-21T00:49:56.658Z,8.50
2019-04-21T00:57:51.898Z,8.80
2019-04-21T01:00:18.216Z,9.00
2019-04-21T01:02:52.551Z,8.80
2019-04-21T01:07:45.453Z,8.40
2019-04-21T01:10:10.586Z,8.30
2019-04-21T01:12:48.968Z,8.30
2019-04-21T01:15:24.630Z,8.60
2019-04-21T01:17:49.295Z,8.80
2019-04-21T01:20:10.463Z,8.50
2019-04-21T01:22:26.763Z,8.10
2019-04-21T01:25:05.598Z,8.00
2019-04-21T01:27:47.877Z,7.80
2019-04-21T01:30:18.939Z,7.70
2019-04-21T01:32:49.480Z,7.70
2019-04-21T01:35:19.321Z,7.60
2019-04-21T01:37:49.524Z,7.50
2019-04-21T01:40:26.029Z,7.60
2019-04-21T01:42:45.866Z,7.70
2019-04-21T01:45:15.735Z,7.80
2019-04-21T01:47:46.218Z,7.70
2019-04-21T01:50:07.065Z,7.80
2019-04-21T01:52:57.368Z,7.60
2019-04-21T01:55:27.821Z,7.50
2019-04-21T01:57:54.036Z,7.50
2019-04-21T02:00:28.115Z,7.50
2019-04-21T02:03:09.888Z,7.60
2019-04-21T02:05:37.497Z,7.50
2019-04-21T02:08:00.856Z,7.30
2019-04-21T02:10:34.644Z,7.10
2019-04-21T02:13:03.623Z,7.20
2019-04-21T02:15:39.116Z,7.20
2019-04-21T02:18:08.970Z,7.20
2019-04-21T02:20:26.893Z,7.30
2019-04-21T02:23:28.137Z,7.40
2019-04-21T02:25:50.636Z,7.40
2019-04-21T02:28:04.358Z,7.30
2019-04-21T02:31:07.972Z,7.20
2019-04-21T02:33:18.713Z,7.20
2019-04-21T02:35:55.867Z,7.20
2019-04-21T02:38:21.034Z,7.00
2019-04-21T02:43:19.139Z,6.70
2019-04-21T02:45:47.548Z,6.60
2019-04-21T02:50:57.713Z,6.50
2019-04-21T02:53:30.547Z,6.40
2019-04-21T02:55:44.048Z,6.40
2019-04-21T02:58:29.441Z,6.60
2019-04-21T03:00:59.628Z,6.60
2019-04-21T03:03:32.039Z,6.60
2019-04-21T03:06:21.011Z,6.80
2019-04-21T03:16:07.306Z,6.60
2019-04-21T03:18:50.408Z,6.40
2019-04-21T03:21:07.142Z,6.20
2019-04-21T03:26:12.306Z,6.20
2019-04-21T03:36:33.252Z,5.90
2019-04-21T03:38:39.424Z,5.90
2019-04-21T03:41:10.636Z,5.90
2019-04-21T03:43:34.590Z,5.90
2019-04-21T03:46:28.223Z,5.80
2019-04-21T03:48:35.746Z,6.00
2019-04-21T03:56:14.816Z,5.90
2019-04-21T03:58:47.464Z,5.70
2019-04-21T04:03:51.808Z,5.60
2019-04-21T04:06:48.853Z,5.50
2019-04-21T04:09:09.270Z,5.50
2019-04-21T04:14:04.266Z,5.70
2019-04-21T04:16:50.186Z,6.00
2019-04-21T04:24:18.967Z,5.70
2019-04-21T04:26:34.578Z,5.70
2019-04-21T04:34:10.022Z,5.90
2019-04-21T04:39:34.016Z,5.80
2019-04-21T04:44:45.682Z,5.80
2019-04-21T04:47:07.340Z,5.70
2019-04-21T04:49:39.620Z,5.70
2019-04-21T04:52:10.232Z,5.60
2019-04-21T04:54:39.207Z,5.70
2019-04-21T04:56:58.943Z,5.80
2019-04-21T04:59:33.768Z,5.80
2019-04-21T05:02:08.698Z,5.80
2019-04-21T05:04:30.436Z,5.80
2019-04-21T05:09:42.758Z,6.00
2019-04-21T05:11:50.136Z,6.10
2019-04-21T05:14:21.294Z,6.30
2019-04-21T05:16:53.001Z,6.30
2019-04-21T05:19:20.210Z,6.50
2019-04-21T05:21:48.726Z,6.80
2019-04-21T05:24:13.722Z,6.80
2019-04-21T05:26:44.744Z,6.90
2019-04-21T05:29:10.591Z,7.00
2019-04-21T05:32:07.891Z,7.10
2019-04-21T05:34:36.053Z,7.30
2019-04-21T05:37:15.613Z,7.30
2019-04-21T05:39:42.372Z,7.40
2019-04-21T05:42:04.974Z,7.50
2019-04-21T05:49:45.541Z,7.80
2019-04-21T05:52:14.356Z,7.90
2019-04-21T05:54:57.318Z,8.10
2019-04-21T05:57:14.694Z,8.30
2019-04-21T05:59:49.013Z,8.50
2019-04-21T06:02:24.295Z,8.50
2019-04-21T06:07:25.555Z,8.90
2019-04-21T06:09:55.430Z,9.10
2019-04-21T06:12:20.890Z,9.20
2019-04-21T06:14:55.943Z,9.30
2019-04-21T06:17:36.875Z,9.50
2019-04-21T06:20:01.745Z,9.60
2019-04-21T06:22:26.633Z,9.70
2019-04-21T06:30:01.942Z,10.00
2019-04-21T06:35:25.572Z,10.20
2019-04-21T06:40:15.244Z,10.60
2019-04-21T06:42:32.503Z,10.80
2019-04-21T06:45:10.323Z,10.80
2019-04-21T06:47:42.165Z,10.90
2019-04-21T06:50:01.969Z,11.00
2019-04-21T06:52:45.907Z,11.10
2019-04-21T06:57:35.482Z,11.40
2019-04-21T07:00:03.478Z,11.50
2019-04-21T07:02:50.751Z,11.60
2019-04-21T07:05:20.321Z,11.70
2019-04-21T07:07:35.326Z,11.90
2019-04-21T07:10:22.771Z,12.00
2019-04-21T07:12:33.642Z,12.20
2019-04-21T07:15:04.015Z,12.30
2019-04-21T07:17:33.696Z,12.50
2019-04-21T07:20:06.946Z,12.60
2019-04-21T07:22:40.143Z,12.70
2019-04-21T07:25:09.134Z,12.80
2019-04-21T07:27:39.126Z,12.90
2019-04-21T07:30:05.024Z,12.90
2019-04-21T07:32:33.478Z,13.00
2019-04-21T07:37:35.099Z,13.20
2019-04-21T07:40:00.153Z,13.30
2019-04-21T07:42:32.508Z,13.40
2019-04-21T07:44:57.941Z,13.60
2019-04-21T07:47:39.635Z,13.70
2019-04-21T07:50:21.335Z,13.70
2019-04-21T07:52:55.275Z,13.90
2019-04-21T07:57:45.680Z,14.10
2019-04-21T08:02:49.720Z,14.20
2019-04-21T08:05:26.406Z,14.20
2019-04-21T08:07:52.031Z,14.20
2019-04-21T08:10:15.652Z,14.30
2019-04-21T08:12:48.123Z,14.40
2019-04-21T08:15:33.877Z,14.30
2019-04-21T08:18:09.795Z,14.50
2019-04-21T08:20:18.834Z,14.70
2019-04-21T08:22:51.060Z,14.80
2019-04-21T08:25:21.868Z,14.80
2019-04-21T08:27:55.495Z,14.80
2019-04-21T08:30:32.296Z,15.00
2019-04-21T08:35:59.485Z,15.20
2019-04-21T08:37:55.277Z,15.20
2019-04-21T08:40:36.862Z,15.20
2019-04-21T08:43:02.853Z,15.30
2019-04-21T08:45:35.741Z,15.50
2019-04-21T08:48:08.337Z,15.60
2019-04-21T08:50:30.938Z,15.60
2019-04-21T08:53:07.961Z,15.90
2019-04-21T08:55:39.731Z,15.90
2019-04-21T09:00:55.123Z,16.20
2019-04-21T09:03:35.567Z,16.20
2019-04-21T09:06:16.982Z,16.50
2019-04-21T09:08:39.631Z,16.50
2019-04-21T09:11:12.845Z,16.50
2019-04-21T09:13:43.045Z,16.70
2019-04-21T09:16:08.483Z,16.60
2019-04-21T09:18:39.525Z,16.80
2019-04-21T09:21:13.549Z,17.10
2019-04-21T09:23:38.224Z,17.40
2019-04-21T09:26:14.126Z,17.50
2019-04-21T09:28:40.849Z,17.70
2019-04-21T09:30:58.443Z,17.90
2019-04-21T09:33:33.416Z,17.80
2019-04-21T09:36:01.224Z,17.90
2019-04-21T09:38:32.841Z,18.00
2019-04-21T09:40:56.516Z,18.10
2019-04-21T09:43:34.317Z,17.90
2019-04-21T09:45:56.690Z,17.90
2019-04-21T09:48:26.677Z,17.90
2019-04-21T09:50:55.491Z,18.00
2019-04-21T09:53:31.217Z,18.20
2019-04-21T09:55:58.081Z,18.30
2019-04-21T09:58:32.835Z,18.30
2019-04-21T10:01:04.884Z,18.40
2019-04-21T10:03:34.902Z,18.40
2019-04-21T10:05:56.704Z,18.50
2019-04-21T10:08:25.152Z,18.50
2019-04-21T10:10:54.708Z,18.60
2019-04-21T10:13:23.428Z,18.50
2019-04-21T10:16:00.750Z,18.50
2019-04-21T10:18:29.446Z,18.70
2019-04-21T10:20:58.964Z,18.80
2019-04-21T10:23:27.591Z,18.80
2019-04-21T10:25:56.768Z,18.90
2019-04-21T10:28:26.760Z,18.90
2019-04-21T10:30:56.522Z,19.00
2019-04-21T10:33:26.279Z,19.20
2019-04-21T10:35:55.226Z,19.10
2019-04-21T10:38:34.830Z,19.80
2019-04-21T10:40:53.928Z,23.80
2019-04-21T10:43:24.375Z,27.00
2019-04-21T10:45:52.869Z,28.50
2019-04-21T10:48:21.410Z,29.10
2019-04-21T10:50:49.898Z,30.00
2019-04-21T10:53:27.103Z,31.20
2019-04-21T10:56:09.395Z,31.10
2019-04-21T10:58:28.486Z,30.90
2019-04-21T11:01:00.436Z,31.80
2019-04-21T11:03:36.975Z,31.70
2019-04-21T11:06:08.621Z,31.30
2019-04-21T11:08:41.663Z,31.90
2019-04-21T11:11:07.983Z,32.00
2019-04-21T11:13:37.034Z,32.10
2019-04-21T11:16:05.757Z,32.20
2019-04-21T11:18:35.737Z,31.80
2019-04-21T11:21:04.973Z,32.90
2019-04-21T11:23:33.581Z,32.50
2019-04-21T11:26:02.295Z,32.50
2019-04-21T11:28:31.156Z,31.80
2019-04-21T11:31:00.557Z,31.30
2019-04-21T11:33:29.287Z,31.20
2019-04-21T11:35:59.417Z,32.50
2019-04-21T11:38:31.898Z,32.20
2019-04-21T11:41:01.527Z,33.10
2019-04-21T11:43:30.820Z,32.40
2019-04-21T11:46:04.548Z,32.40
2019-04-21T11:48:34.439Z,32.30
2019-04-21T11:51:03.153Z,32.20
2019-04-21T11:53:32.745Z,33.50
2019-04-21T11:56:02.770Z,32.90
2019-04-21T11:58:31.977Z,32.30
2019-04-21T12:01:03.379Z,32.20
2019-04-21T12:03:33.523Z,31.50
2019-04-21T12:06:03.534Z,33.10
2019-04-21T12:08:39.334Z,33.00
2019-04-21T12:11:03.252Z,31.80
2019-04-21T12:13:32.238Z,31.90
2019-04-21T12:16:01.063Z,33.70
2019-04-21T12:18:30.526Z,33.30
2019-04-21T12:21:01.120Z,33.80
2019-04-21T12:23:30.203Z,32.90
2019-04-21T12:25:59.141Z,31.90
2019-04-21T12:28:28.039Z,33.00
2019-04-21T12:30:57.886Z,33.90
2019-04-21T12:33:34.222Z,33.40
2019-04-21T12:36:04.006Z,33.40
2019-04-21T12:38:42.671Z,33.20
2019-04-21T12:41:02.774Z,32.50
2019-04-21T12:43:31.253Z,32.90
2019-04-21T12:46:00.062Z,32.30
2019-04-21T12:48:29.681Z,31.40
2019-04-21T12:50:59.694Z,31.70
2019-04-21T12:53:29.605Z,32.20
2019-04-21T12:55:58.288Z,32.50
2019-04-21T12:58:26.743Z,34.10
2019-04-21T13:00:55.219Z,33.00
2019-04-21T13:03:25.176Z,33.40
2019-04-21T13:05:53.883Z,33.80
2019-04-21T13:08:22.416Z,33.30
2019-04-21T13:10:51.998Z,31.60
2019-04-21T13:13:21.880Z,32.90
2019-04-21T13:15:51.707Z,34.20
2019-04-21T13:18:20.623Z,33.90
2019-04-21T13:20:49.292Z,34.30
2019-04-21T13:23:18.936Z,35.30
2019-04-21T13:25:47.933Z,34.30
2019-04-21T13:28:16.660Z,33.70
2019-04-21T13:30:46.302Z,33.70
2019-04-21T13:33:15.409Z,34.00
2019-04-21T13:35:44.840Z,34.30
2019-04-21T13:38:26.375Z,34.20
2019-04-21T13:41:03.785Z,35.10
2019-04-21T13:43:18.997Z,34.20
2019-04-21T13:45:47.908Z,32.50
2019-04-21T13:48:16.799Z,32.10
2019-04-21T13:50:45.388Z,33.40
2019-04-21T13:53:14.676Z,35.00
2019-04-21T13:55:44.653Z,35.20
2019-04-21T13:58:14.462Z,34.50
2019-04-21T14:00:43.208Z,34.20
2019-04-21T14:03:16.749Z,33.20
2019-04-21T14:05:46.497Z,33.20
2019-04-21T14:08:15.516Z,33.80
2019-04-21T14:10:44.293Z,33.80
2019-04-21T14:13:14.219Z,34.30
2019-04-21T14:15:45.253Z,33.60
2019-04-21T14:18:13.162Z,33.50
2019-04-21T14:20:42.868Z,33.90
2019-04-21T14:23:22.428Z,33.40
2019-04-21T14:25:41.832Z,33.60
2019-04-21T14:28:10.324Z,32.20
2019-04-21T14:30:38.811Z,32.50
2019-04-21T14:33:07.940Z,33.10
2019-04-21T14:35:36.755Z,33.60
2019-04-21T14:38:06.635Z,33.30
2019-04-21T14:40:37.042Z,33.20
2019-04-21T14:43:05.947Z,32.10
2019-04-21T14:45:39.200Z,33.10
2019-04-21T14:48:27.281Z,33.10
2019-04-21T14:51:06.658Z,33.70
2019-04-21T14:53:56.334Z,34.00
2019-04-21T14:56:25.406Z,33.80
2019-04-21T14:58:55.976Z,32.90
2019-04-21T15:01:24.459Z,31.90
2019-04-21T15:03:52.907Z,32.40
2019-04-21T15:06:21.350Z,32.40
2019-04-21T15:08:51.107Z,32.80
2019-04-21T15:11:20.090Z,31.30
2019-04-21T15:13:49.852Z,32.30
2019-04-21T15:16:18.965Z,31.40
2019-04-21T15:18:48.602Z,33.50
2019-04-21T15:21:17.511Z,31.60
2019-04-21T15:23:46.556Z,30.60
2019-04-21T15:26:15.279Z,30.90
2019-04-21T15:28:44.523Z,31.80
2019-04-21T15:31:20.461Z,31.70
2019-04-21T15:33:43.273Z,32.20
2019-04-21T15:36:13.280Z,32.60
2019-04-21T15:38:43.596Z,32.20
2019-04-21T15:41:12.636Z,31.50
2019-04-21T15:43:42.476Z,31.30
2019-04-21T15:46:11.260Z,31.90
2019-04-21T15:48:40.938Z,31.30
2019-04-21T15:51:11.124Z,32.00
2019-04-21T15:53:41.894Z,31.70
2019-04-21T15:56:12.993Z,31.40
2019-04-21T15:58:59.238Z,30.90
2019-04-21T16:01:30.311Z,31.00
2019-04-21T16:04:00.584Z,31.30
2019-04-21T16:06:29.642Z,32.00
2019-04-21T16:09:00.867Z,32.80
2019-04-21T16:11:28.616Z,32.20
2019-04-21T16:13:59.847Z,30.30
2019-04-21T16:16:30.414Z,30.40
2019-04-21T16:18:58.533Z,29.90
2019-04-21T16:21:26.985Z,29.70
2019-04-21T16:23:56.466Z,30.80
2019-04-21T16:26:26.632Z,31.10
2019-04-21T16:28:55.419Z,29.40
2019-04-21T16:31:24.747Z,29.30
2019-04-21T16:33:54.649Z,29.60
2019-04-21T16:36:23.387Z,29.10
2019-04-21T16:38:53.460Z,29.10
2019-04-21T16:41:22.395Z,29.10
2019-04-21T16:43:51.398Z,28.90
2019-04-21T16:46:21.109Z,28.70
2019-04-21T16:48:49.737Z,29.10
2019-04-21T16:51:18.274Z,29.70
2019-04-21T16:53:52.118Z,28.40
2019-04-21T16:56:22.852Z,27.10
2019-04-21T16:58:54.558Z,26.50
2019-04-21T17:01:29.231Z,25.60
2019-04-21T17:03:58.299Z,25.30
2019-04-21T17:06:27.143Z,25.20
2019-04-21T17:08:56.780Z,25.10
2019-04-21T17:11:30.652Z,24.30
2019-04-21T17:13:56.626Z,24.20
2019-04-21T17:17:02.856Z,23.90
2019-04-21T17:19:05.264Z,23.50
2019-04-21T17:21:26.547Z,23.10
2019-04-21T17:23:56.687Z,23.10
2019-04-21T17:26:26.796Z,23.10
2019-04-21T17:28:56.625Z,23.10
2019-04-21T17:31:26.875Z,23.00
2019-04-21T17:34:02.098Z,22.90
2019-04-21T17:36:25.587Z,23.10
2019-04-21T17:38:54.326Z,22.40
2019-04-21T17:41:33.129Z,23.00
2019-04-21T17:43:54.368Z,23.00
2019-04-21T17:46:34.530Z,23.00
2019-04-21T17:48:52.992Z,23.10
2019-04-21T17:51:23.426Z,22.80
2019-04-21T17:54:00.427Z,22.10
2019-04-21T17:56:53.852Z,21.60
2019-04-21T17:59:16.413Z,21.70
2019-04-21T18:01:48.624Z,22.10
2019-04-21T18:04:18.800Z,21.80
2019-04-21T18:06:59.641Z,21.90
2019-04-21T18:09:44.132Z,21.80
2019-04-21T18:12:03.136Z,21.40
2019-04-21T18:14:16.777Z,21.50
2019-04-21T18:16:48.576Z,21.40
2019-04-21T18:19:19.371Z,21.20
2019-04-21T18:21:54.105Z,21.30
2019-04-21T18:24:23.017Z,21.10
2019-04-21T18:26:57.324Z,20.90
2019-04-21T18:29:23.741Z,20.60
2019-04-21T18:31:54.172Z,20.40
2019-04-21T18:34:44.019Z,20.30
2019-04-21T18:37:33.127Z,20.40
2019-04-21T18:40:05.345Z,20.60
2019-04-21T18:42:53.305Z,20.00
2019-04-21T18:45:49.713Z,20.60
2019-04-21T18:48:09.344Z,20.80
2019-04-21T18:50:46.283Z,20.80
2019-04-21T18:53:42.779Z,20.80
2019-04-21T18:56:03.725Z,20.20
2019-04-21T18:58:28.814Z,20.00
2019-04-21T19:01:06.826Z,19.70
2019-04-21T19:03:35.399Z,19.70
2019-04-21T19:06:03.881Z,19.80
2019-04-21T19:08:46.834Z,19.60
2019-04-21T19:11:19.629Z,19.30
2019-04-21T19:19:33.131Z,18.80
2019-04-21T19:21:28.378Z,19.00
2019-04-21T19:24:10.766Z,18.80
2019-04-21T19:26:46.557Z,19.00
2019-04-21T19:29:16.361Z,18.60
2019-04-21T19:31:41.583Z,18.20
2019-04-21T19:33:55.153Z,18.30
2019-04-21T19:36:17.363Z,18.40
2019-04-21T19:38:58.632Z,18.30
2019-04-21T19:41:32.400Z,18.10
2019-04-21T19:44:06.742Z,18.10
2019-04-21T19:46:33.532Z,18.20
2019-04-21T19:49:10.943Z,18.00
2019-04-21T19:51:31.079Z,17.70
2019-04-21T19:53:56.314Z,17.60
2019-04-21T19:56:18.567Z,17.60
2019-04-21T19:58:47.872Z,17.50
2019-04-21T20:01:17.468Z,17.30
2019-04-21T20:03:49.878Z,17.20
2019-04-21T20:06:33.088Z,17.20
2019-04-21T20:09:04.255Z,17.10
2019-04-21T20:11:34.621Z,17.10
2019-04-21T20:14:35.275Z,17.00
2019-04-21T20:16:37.383Z,17.00
2019-04-21T20:18:55.352Z,17.00
2019-04-21T20:21:17.325Z,16.90
2019-04-21T20:23:46.657Z,17.00
2019-04-21T20:26:16.016Z,16.80
2019-04-21T20:28:57.108Z,16.80
2019-04-21T20:31:29.258Z,16.90
2019-04-21T20:34:09.058Z,16.60
2019-04-21T20:36:32.878Z,16.40
2019-04-21T20:38:54.989Z,16.50
2019-04-21T20:41:29.779Z,16.40
2019-04-21T20:44:06.249Z,16.00
2019-04-21T20:46:36.806Z,15.70
2019-04-21T20:49:00.045Z,15.50
2019-04-21T20:51:35.310Z,15.30
2019-04-21T20:54:03.199Z,15.10
2019-04-21T20:56:34.482Z,15.20
2019-04-21T20:59:07.746Z,15.10
2019-04-21T21:01:35.894Z,15.20
2019-04-21T21:04:01.628Z,15.30
2019-04-21T21:06:35.243Z,15.30
2019-04-21T21:09:07.354Z,15.50
2019-04-21T21:11:36.402Z,15.30
2019-04-21T21:14:07.004Z,15.20
2019-04-21T21:19:18.225Z,15.20
2019-04-21T21:21:38.333Z,15.10
2019-04-21T21:24:10.210Z,14.90
2019-04-21T21:26:38.146Z,14.80
2019-04-21T21:29:02.962Z,14.40
2019-04-21T21:31:42.100Z,14.00
2019-04-21T21:34:16.528Z,13.70
2019-04-21T21:36:42.846Z,13.50
2019-04-21T21:39:12.842Z,13.40
2019-04-21T21:41:31.380Z,13.40
2019-04-21T21:44:02.775Z,13.60
2019-04-21T21:46:43.055Z,13.80
2019-04-21T21:49:05.014Z,14.10
2019-04-21T21:51:42.248Z,13.90
2019-04-21T21:53:54.715Z,13.70
2019-04-21T21:56:24.728Z,13.60
2019-04-21T21:58:53.904Z,13.60
2019-04-21T22:01:31.824Z,13.80
2019-04-21T22:04:05.056Z,13.80
2019-04-21T22:06:34.204Z,13.60
2019-04-21T22:08:54.582Z,13.60
2019-04-21T22:11:24.146Z,13.50
2019-04-21T22:13:58.856Z,13.50
2019-04-21T22:16:28.628Z,13.40
2019-04-21T22:19:14.276Z,13.20
2019-04-21T22:21:42.611Z,12.90
2019-04-21T22:24:00.235Z,12.70
2019-04-21T22:26:25.087Z,12.50
2019-04-21T22:28:53.994Z,12.30
2019-04-21T22:31:28.193Z,12.00
2019-04-21T22:33:55.743Z,12.10
2019-04-21T22:36:35.369Z,12.10
2019-04-21T22:39:13.062Z,12.10
2019-04-21T22:41:30.725Z,12.20
2019-04-21T22:43:54.238Z,12.20
2019-04-21T22:46:24.438Z,12.30
2019-04-21T22:48:57.149Z,12.50
2019-04-21T22:51:30.263Z,12.50
2019-04-21T22:53:55.760Z,12.20
2019-04-21T22:56:26.816Z,11.90
2019-04-21T22:58:55.013Z,11.80
2019-04-21T23:01:28.229Z,11.40
2019-04-21T23:03:59.220Z,11.20
2019-04-21T23:06:27.332Z,11.10
2019-04-21T23:08:55.109Z,11.10
2019-04-21T23:11:29.398Z,11.20
2019-04-21T23:14:02.488Z,11.40
2019-04-21T23:16:30.140Z,11.60
2019-04-21T23:19:10.977Z,12.00
2019-04-21T23:21:41.375Z,12.00
2019-04-21T23:24:08.747Z,11.80
2019-04-21T23:26:39.609Z,11.50
2019-04-21T23:29:15.538Z,11.30
2019-04-21T23:31:48.303Z,11.30
2019-04-21T23:33:55.566Z,11.30
2019-04-21T23:36:27.936Z,11.20
2019-04-21T23:38:56.480Z,11.10
2019-04-21T23:41:25.978Z,10.90
2019-04-21T23:43:59.377Z,10.60
2019-04-21T23:46:29.909Z,10.80
2019-04-21T23:49:07.374Z,11.00
2019-04-21T23:51:34.413Z,11.00
2019-04-21T23:53:55.480Z,10.80
2019-04-21T23:56:32.884Z,10.50
2019-04-21T23:59:02.636Z,10.40
